LEXJ Información de aeropuertos

Información de pistas
Pista 11 Longitud 7612 ft Ancho 148 ft
Elevación 11 ft Umbral 0 ft Rumbo 110
Pista 29 Longitud 7612 ft Ancho 148 ft
Elevación 12 ft Umbral 0 ft Rumbo 290
Frecuencias
Tipo APP Nombre APP Frequencia 118.375 MHZ
Tipo GND Nombre GND Frequencia 121.7 MHZ
Tipo TWR Nombre TWR Frequencia 118.1 MHZ
Radioayudas
Tipo NDB Nombre Santander Frequencia 416 KHZ
Tipo VOR-DME Nombre Santander Frequencia 115300 KHZ
Información meteorológica y NOTAM
ADDS - METARS form results

(1810 UTC 12 June 2021)
Data provider http://aviationweather.gov/metar/data/
 
METAR text: LEXJ 121800Z 05004KT 350V100 CAVOK 20/16 Q1021
Conditions at: LEXJ (SANTANDER/PARAYA, ES) observed 1800 UTC 12 June 2021
Temperature: 20.0°C (68°F)
Dewpoint: 16.0°C (61°F) [RH = 78%]
Pressure (altimeter): 30.15 inches Hg (1021.0 mb)
Winds: from the NE (50 degrees) at 5 MPH (4 knots; 2.1 m/s)
Visibility: 6 or more miles (10+ km)
Ceiling: ceiling and visibility are OK
Clouds: unknown
Weather: no significant weather observed at this time

METAR text: LEXJ 121730Z 05006KT 010V100 CAVOK 20/16 Q1022
Conditions at: LEXJ (SANTANDER/PARAYA, ES) observed 1730 UTC 12 June 2021
Temperature: 20.0°C (68°F)
Dewpoint: 16.0°C (61°F) [RH = 78%]
Pressure (altimeter): 30.18 inches Hg (1022.0 mb)
Winds: from the NE (50 degrees) at 7 MPH (6 knots; 3.1 m/s)
Visibility: 6 or more miles (10+ km)
Ceiling: ceiling and visibility are OK
Clouds: unknown
Weather: no significant weather observed at this time

Forecast for: LEXJ (SANTANDER/PARAYA, ES)
Text: TAF LEXJ 121400Z 1215/1315 06009KT 9999 FEW010 SCT040 TX32/1313Z TN16/1305Z
Forecast period: 1500 UTC 12 June 2021 to 1500 UTC 13 June 2021
Forecast type: FROM: standard forecast or significant change
Winds: from the ENE (60 degrees) at 10 MPH (9 knots; 4.6 m/s)
Visibility: 6 or more miles (10+ km)
Ceiling: at least 12,000 feet AGL
Clouds: few clouds at 1000 feet AGL
scattered clouds at 4000 feet AGL
Weather: no significant weather forecast for this period
Text: PROB40
Forecast period: 2100 UTC 12 June 2021 to 0700 UTC 13 June 2021
Forecast type: TEMPORARY: The following changes expected for less than half the time period
Visibility: 1.86 miles (2.99 km)
Ceiling: unknown
Clouds: missing
Weather: BCFG  (patches of fog)
Text: TEMPO 1221/1307 3000 BCFG
Forecast period: 2100 UTC 12 June 2021 to 0700 UTC 13 June 2021
Forecast type: TEMPORARY: The following changes expected for less than half the time period
Visibility: 0.50 miles (0.80 km)
Ceiling: 200 feet AGL
Clouds: broken clouds at 200 feet AGL
Weather: FG  (fog)